sensor_id;sensor_type;location;lat;lon;timestamp;P1;durP1;ratioP1;P2;durP2;ratioP2
49183;SDS011;35021;49.214;12.270;2023-09-07T00:02:09;2.35;;;1.92;;
49183;SDS011;35021;49.214;12.270;2023-09-07T00:04:37;4.20;;;1.73;;
49183;SDS011;35021;49.214;12.270;2023-09-07T00:07:04;3.28;;;2.15;;
49183;SDS011;35021;49.214;12.270;2023-09-07T00:09:31;2.10;;;1.90;;
49183;SDS011;35021;49.214;12.270;2023-09-07T00:11:58;2.38;;;2.17;;
49183;SDS011;35021;49.214;12.270;2023-09-07T00:14:25;2.35;;;2.15;;
49183;SDS011;35021;49.214;12.270;2023-09-07T00:16:51;2.47;;;1.95;;
49183;SDS011;35021;49.214;12.270;2023-09-07T00:19:19;3.25;;;2.20;;
49183;SDS011;35021;49.214;12.270;2023-09-07T00:21:45;2.67;;;1.90;;
49183;SDS011;35021;49.214;12.270;2023-09-07T00:24:12;2.97;;;2.00;;
49183;SDS011;35021;49.214;12.270;2023-09-07T00:26:39;2.67;;;2.03;;
49183;SDS011;35021;49.214;12.270;2023-09-07T00:29:06;3.10;;;2.13;;
49183;SDS011;35021;49.214;12.270;2023-09-07T00:31:33;5.43;;;1.70;;
49183;SDS011;35021;49.214;12.270;2023-09-07T00:34:00;3.25;;;2.05;;
49183;SDS011;35021;49.214;12.270;2023-09-07T00:36:28;2.25;;;2.05;;
49183;SDS011;35021;49.214;12.270;2023-09-07T00:38:55;4.85;;;2.88;;
49183;SDS011;35021;49.214;12.270;2023-09-07T00:41:21;2.22;;;1.73;;
49183;SDS011;35021;49.214;12.270;2023-09-07T00:43:48;4.03;;;2.08;;
49183;SDS011;35021;49.214;12.270;2023-09-07T00:46:15;2.30;;;2.10;;
49183;SDS011;35021;49.214;12.270;2023-09-07T00:48:42;4.07;;;2.03;;
49183;SDS011;35021;49.214;12.270;2023-09-07T00:51:09;2.50;;;1.90;;
49183;SDS011;35021;49.214;12.270;2023-09-07T00:53:36;2.70;;;2.20;;
49183;SDS011;35021;49.214;12.270;2023-09-07T00:56:03;2.20;;;2.00;;
49183;SDS011;35021;49.214;12.270;2023-09-07T00:58:31;2.20;;;2.00;;
49183;SDS011;35021;49.214;12.270;2023-09-07T01:00:59;2.00;;;1.80;;
49183;SDS011;35021;49.214;12.270;2023-09-07T01:03:27;2.10;;;1.90;;
49183;SDS011;35021;49.214;12.270;2023-09-07T01:06:04;3.40;;;2.28;;
49183;SDS011;35021;49.214;12.270;2023-09-07T01:08:46;4.18;;;2.05;;
49183;SDS011;35021;49.214;12.270;2023-09-07T01:11:19;3.28;;;1.60;;
49183;SDS011;35021;49.214;12.270;2023-09-07T01:13:49;2.00;;;1.65;;
49183;SDS011;35021;49.214;12.270;2023-09-07T01:16:18;2.20;;;2.00;;
49183;SDS011;35021;49.214;12.270;2023-09-07T01:18:47;3.10;;;2.00;;
49183;SDS011;35021;49.214;12.270;2023-09-07T01:21:14;2.40;;;2.00;;
49183;SDS011;35021;49.214;12.270;2023-09-07T01:23:41;2.10;;;1.90;;
49183;SDS011;35021;49.214;12.270;2023-09-07T01:26:10;1.83;;;1.70;;
49183;SDS011;35021;49.214;12.270;2023-09-07T01:28:37;4.47;;;2.03;;
49183;SDS011;35021;49.214;12.270;2023-09-07T01:31:04;2.30;;;2.00;;
49183;SDS011;35021;49.214;12.270;2023-09-07T01:33:33;3.97;;;2.13;;
49183;SDS011;35021;49.214;12.270;2023-09-07T01:35:59;2.50;;;2.13;;
49183;SDS011;35021;49.214;12.270;2023-09-07T01:38:27;3.05;;;2.08;;
49183;SDS011;35021;49.214;12.270;2023-09-07T01:40:55;2.47;;;1.77;;
49183;SDS011;35021;49.214;12.270;2023-09-07T01:43:22;3.22;;;2.08;;
49183;SDS011;35021;49.214;12.270;2023-09-07T01:45:48;2.13;;;1.80;;
49183;SDS011;35021;49.214;12.270;2023-09-07T01:48:15;2.72;;;1.90;;
49183;SDS011;35021;49.214;12.270;2023-09-07T01:50:42;2.03;;;1.80;;
49183;SDS011;35021;49.214;12.270;2023-09-07T01:53:09;2.28;;;2.00;;
49183;SDS011;35021;49.214;12.270;2023-09-07T01:55:36;1.88;;;1.67;;
49183;SDS011;35021;49.214;12.270;2023-09-07T01:58:03;2.05;;;1.73;;
49183;SDS011;35021;49.214;12.270;2023-09-07T02:00:30;2.50;;;2.15;;
49183;SDS011;35021;49.214;12.270;2023-09-07T02:02:57;1.83;;;1.65;;
49183;SDS011;35021;49.214;12.270;2023-09-07T02:05:24;2.40;;;1.73;;
49183;SDS011;35021;49.214;12.270;2023-09-07T02:07:50;2.67;;;2.00;;
49183;SDS011;35021;49.214;12.270;2023-09-07T02:10:18;1.90;;;1.70;;
49183;SDS011;35021;49.214;12.270;2023-09-07T02:12:45;2.25;;;1.73;;
49183;SDS011;35021;49.214;12.270;2023-09-07T02:15:12;2.95;;;1.77;;
49183;SDS011;35021;49.214;12.270;2023-09-07T02:17:39;1.88;;;1.65;;
49183;SDS011;35021;49.214;12.270;2023-09-07T02:20:06;4.13;;;1.75;;
49183;SDS011;35021;49.214;12.270;2023-09-07T02:22:37;1.70;;;1.52;;
49183;SDS011;35021;49.214;12.270;2023-09-07T02:25:04;2.15;;;1.70;;
49183;SDS011;35021;49.214;12.270;2023-09-07T02:27:32;2.30;;;1.75;;
49183;SDS011;35021;49.214;12.270;2023-09-07T02:29:59;2.05;;;1.83;;
49183;SDS011;35021;49.214;12.270;2023-09-07T02:32:27;2.38;;;2.00;;
49183;SDS011;35021;49.214;12.270;2023-09-07T02:34:54;2.38;;;1.70;;
49183;SDS011;35021;49.214;12.270;2023-09-07T02:37:21;2.45;;;2.00;;
49183;SDS011;35021;49.214;12.270;2023-09-07T02:39:48;3.20;;;1.75;;
49183;SDS011;35021;49.214;12.270;2023-09-07T02:42:14;2.95;;;2.00;;
49183;SDS011;35021;49.214;12.270;2023-09-07T02:44:41;2.65;;;1.92;;
49183;SDS011;35021;49.214;12.270;2023-09-07T02:47:08;2.00;;;1.80;;
49183;SDS011;35021;49.214;12.270;2023-09-07T02:49:38;3.22;;;2.00;;
49183;SDS011;35021;49.214;12.270;2023-09-07T02:52:05;2.03;;;1.80;;
49183;SDS011;35021;49.214;12.270;2023-09-07T02:54:32;2.67;;;2.10;;
49183;SDS011;35021;49.214;12.270;2023-09-07T02:56:59;3.92;;;1.85;;
49183;SDS011;35021;49.214;12.270;2023-09-07T02:59:25;1.90;;;1.70;;
49183;SDS011;35021;49.214;12.270;2023-09-07T03:01:52;3.00;;;2.10;;
49183;SDS011;35021;49.214;12.270;2023-09-07T03:04:19;2.05;;;1.70;;
49183;SDS011;35021;49.214;12.270;2023-09-07T03:06:46;2.50;;;1.80;;
49183;SDS011;35021;49.214;12.270;2023-09-07T03:09:13;2.25;;;1.90;;
49183;SDS011;35021;49.214;12.270;2023-09-07T03:11:40;2.83;;;1.95;;
49183;SDS011;35021;49.214;12.270;2023-09-07T03:14:07;2.00;;;1.73;;
49183;SDS011;35021;49.214;12.270;2023-09-07T03:16:36;2.03;;;1.83;;
49183;SDS011;35021;49.214;12.270;2023-09-07T03:19:05;2.80;;;1.70;;
49183;SDS011;35021;49.214;12.270;2023-09-07T03:21:33;1.70;;;1.50;;
49183;SDS011;35021;49.214;12.270;2023-09-07T03:24:00;1.73;;;1.63;;
49183;SDS011;35021;49.214;12.270;2023-09-07T03:26:27;2.95;;;1.90;;
49183;SDS011;35021;49.214;12.270;2023-09-07T03:28:54;1.73;;;1.60;;
49183;SDS011;35021;49.214;12.270;2023-09-07T03:31:21;1.95;;;1.75;;
49183;SDS011;35021;49.214;12.270;2023-09-07T03:33:48;2.13;;;1.92;;
49183;SDS011;35021;49.214;12.270;2023-09-07T03:36:15;2.05;;;1.85;;
49183;SDS011;35021;49.214;12.270;2023-09-07T03:38:43;2.47;;;1.85;;
49183;SDS011;35021;49.214;12.270;2023-09-07T03:41:10;4.63;;;1.60;;
49183;SDS011;35021;49.214;12.270;2023-09-07T03:43:37;2.30;;;1.90;;
49183;SDS011;35021;49.214;12.270;2023-09-07T03:46:03;3.20;;;2.30;;
49183;SDS011;35021;49.214;12.270;2023-09-07T03:48:30;2.03;;;1.73;;
49183;SDS011;35021;49.214;12.270;2023-09-07T03:50:58;2.72;;;1.90;;
49183;SDS011;35021;49.214;12.270;2023-09-07T03:53:25;2.10;;;1.90;;
49183;SDS011;35021;49.214;12.270;2023-09-07T03:55:52;2.05;;;1.85;;
49183;SDS011;35021;49.214;12.270;2023-09-07T03:58:19;1.65;;;1.52;;
49183;SDS011;35021;49.214;12.270;2023-09-07T04:00:46;3.40;;;1.80;;
49183;SDS011;35021;49.214;12.270;2023-09-07T04:03:14;2.10;;;1.80;;
49183;SDS011;35021;49.214;12.270;2023-09-07T04:05:41;2.15;;;1.95;;
49183;SDS011;35021;49.214;12.270;2023-09-07T04:08:08;2.00;;;1.80;;
49183;SDS011;35021;49.214;12.270;2023-09-07T04:10:38;3.03;;;2.35;;
49183;SDS011;35021;49.214;12.270;2023-09-07T04:13:05;2.30;;;1.80;;
49183;SDS011;35021;49.214;12.270;2023-09-07T04:15:42;2.63;;;2.00;;
49183;SDS011;35021;49.214;12.270;2023-09-07T04:18:11;3.75;;;2.10;;
49183;SDS011;35021;49.214;12.270;2023-09-07T04:20:44;4.82;;;2.20;;
49183;SDS011;35021;49.214;12.270;2023-09-07T04:23:11;2.25;;;2.05;;
49183;SDS011;35021;49.214;12.270;2023-09-07T04:25:38;3.70;;;2.17;;
49183;SDS011;35021;49.214;12.270;2023-09-07T04:28:05;3.50;;;2.00;;
49183;SDS011;35021;49.214;12.270;2023-09-07T04:30:36;3.08;;;1.98;;
49183;SDS011;35021;49.214;12.270;2023-09-07T04:33:04;3.17;;;2.08;;
49183;SDS011;35021;49.214;12.270;2023-09-07T04:35:32;4.47;;;2.30;;
49183;SDS011;35021;49.214;12.270;2023-09-07T04:37:59;2.03;;;1.80;;
49183;SDS011;35021;49.214;12.270;2023-09-07T04:40:26;2.15;;;1.83;;
49183;SDS011;35021;49.214;12.270;2023-09-07T04:42:53;1.60;;;1.50;;
49183;SDS011;35021;49.214;12.270;2023-09-07T04:45:21;3.45;;;2.08;;
49183;SDS011;35021;49.214;12.270;2023-09-07T04:47:49;3.33;;;2.00;;
49183;SDS011;35021;49.214;12.270;2023-09-07T04:50:17;2.70;;;1.80;;
49183;SDS011;35021;49.214;12.270;2023-09-07T04:52:43;2.10;;;1.90;;
49183;SDS011;35021;49.214;12.270;2023-09-07T04:55:10;2.30;;;2.10;;
49183;SDS011;35021;49.214;12.270;2023-09-07T04:57:38;4.00;;;1.90;;
49183;SDS011;35021;49.214;12.270;2023-09-07T05:00:07;3.53;;;2.10;;
49183;SDS011;35021;49.214;12.270;2023-09-07T05:02:38;2.72;;;1.73;;
49183;SDS011;35021;49.214;12.270;2023-09-07T05:05:08;2.20;;;1.95;;
49183;SDS011;35021;49.214;12.270;2023-09-07T05:07:35;3.33;;;1.90;;
49183;SDS011;35021;49.214;12.270;2023-09-07T05:10:02;2.63;;;2.13;;
49183;SDS011;35021;49.214;12.270;2023-09-07T05:12:30;3.75;;;2.33;;
49183;SDS011;35021;49.214;12.270;2023-09-07T05:14:57;2.42;;;2.08;;
49183;SDS011;35021;49.214;12.270;2023-09-07T05:17:24;2.80;;;1.77;;
49183;SDS011;35021;49.214;12.270;2023-09-07T05:19:51;3.42;;;2.28;;
49183;SDS011;35021;49.214;12.270;2023-09-07T05:22:18;3.75;;;2.17;;
49183;SDS011;35021;49.214;12.270;2023-09-07T05:24:46;2.83;;;1.98;;
49183;SDS011;35021;49.214;12.270;2023-09-07T05:27:14;1.95;;;1.70;;
49183;SDS011;35021;49.214;12.270;2023-09-07T05:29:40;2.88;;;1.80;;
49183;SDS011;35021;49.214;12.270;2023-09-07T05:32:09;4.97;;;2.08;;
49183;SDS011;35021;49.214;12.270;2023-09-07T05:34:36;2.45;;;2.00;;
49183;SDS011;35021;49.214;12.270;2023-09-07T05:37:03;3.13;;;2.15;;
49183;SDS011;35021;49.214;12.270;2023-09-07T05:39:30;2.67;;;2.30;;
49183;SDS011;35021;49.214;12.270;2023-09-07T05:41:57;3.75;;;2.35;;
49183;SDS011;35021;49.214;12.270;2023-09-07T05:44:24;3.22;;;2.20;;
49183;SDS011;35021;49.214;12.270;2023-09-07T05:46:50;2.72;;;2.00;;
49183;SDS011;35021;49.214;12.270;2023-09-07T05:49:18;4.18;;;2.20;;
49183;SDS011;35021;49.214;12.270;2023-09-07T05:51:45;3.00;;;2.30;;
49183;SDS011;35021;49.214;12.270;2023-09-07T05:54:11;4.60;;;2.40;;
49183;SDS011;35021;49.214;12.270;2023-09-07T05:56:38;3.88;;;3.17;;
49183;SDS011;35021;49.214;12.270;2023-09-07T05:59:05;5.43;;;3.10;;
49183;SDS011;35021;49.214;12.270;2023-09-07T06:01:32;4.63;;;3.35;;
49183;SDS011;35021;49.214;12.270;2023-09-07T06:03:59;5.95;;;3.47;;
49183;SDS011;35021;49.214;12.270;2023-09-07T06:06:27;4.72;;;3.50;;
49183;SDS011;35021;49.214;12.270;2023-09-07T06:08:53;5.47;;;3.85;;
49183;SDS011;35021;49.214;12.270;2023-09-07T06:11:20;4.25;;;3.40;;
49183;SDS011;35021;49.214;12.270;2023-09-07T06:13:47;4.03;;;3.30;;
49183;SDS011;35021;49.214;12.270;2023-09-07T06:16:15;6.78;;;3.40;;
49183;SDS011;35021;49.214;12.270;2023-09-07T06:18:42;3.70;;;2.92;;
49183;SDS011;35021;49.214;12.270;2023-09-07T06:21:09;3.67;;;3.20;;
49183;SDS011;35021;49.214;12.270;2023-09-07T06:23:36;3.35;;;3.05;;
49183;SDS011;35021;49.214;12.270;2023-09-07T06:26:03;3.85;;;3.42;;
49183;SDS011;35021;49.214;12.270;2023-09-07T06:28:30;3.83;;;3.17;;
49183;SDS011;35021;49.214;12.270;2023-09-07T06:30:57;3.08;;;2.70;;
49183;SDS011;35021;49.214;12.270;2023-09-07T06:33:25;3.20;;;2.90;;
49183;SDS011;35021;49.214;12.270;2023-09-07T06:35:51;3.78;;;2.90;;
49183;SDS011;35021;49.214;12.270;2023-09-07T06:38:18;3.42;;;2.70;;
49183;SDS011;35021;49.214;12.270;2023-09-07T06:40:48;4.05;;;2.60;;
49183;SDS011;35021;49.214;12.270;2023-09-07T06:43:16;5.68;;;2.88;;
49183;SDS011;35021;49.214;12.270;2023-09-07T06:45:43;4.22;;;2.63;;
49183;SDS011;35021;49.214;12.270;2023-09-07T06:48:10;3.70;;;2.92;;
49183;SDS011;35021;49.214;12.270;2023-09-07T06:50:39;2.90;;;2.60;;
49183;SDS011;35021;49.214;12.270;2023-09-07T06:53:06;4.35;;;2.58;;
49183;SDS011;35021;49.214;12.270;2023-09-07T06:55:32;3.33;;;2.55;;
49183;SDS011;35021;49.214;12.270;2023-09-07T06:58:00;3.28;;;2.55;;
49183;SDS011;35021;49.214;12.270;2023-09-07T07:00:28;4.63;;;3.00;;
49183;SDS011;35021;49.214;12.270;2023-09-07T07:02:55;3.60;;;2.58;;
49183;SDS011;35021;49.214;12.270;2023-09-07T07:05:24;4.35;;;3.08;;
49183;SDS011;35021;49.214;12.270;2023-09-07T07:07:54;5.00;;;3.03;;
49183;SDS011;35021;49.214;12.270;2023-09-07T07:10:22;3.72;;;2.40;;
49183;SDS011;35021;49.214;12.270;2023-09-07T07:12:48;4.07;;;2.63;;
49183;SDS011;35021;49.214;12.270;2023-09-07T07:15:15;3.22;;;2.65;;
49183;SDS011;35021;49.214;12.270;2023-09-07T07:17:42;2.55;;;2.35;;
49183;SDS011;35021;49.214;12.270;2023-09-07T07:20:09;3.38;;;2.70;;
49183;SDS011;35021;49.214;12.270;2023-09-07T07:22:37;2.90;;;2.60;;
49183;SDS011;35021;49.214;12.270;2023-09-07T07:25:04;3.47;;;2.70;;
49183;SDS011;35021;49.214;12.270;2023-09-07T07:27:33;2.80;;;2.50;;
49183;SDS011;35021;49.214;12.270;2023-09-07T07:30:00;3.42;;;2.35;;
49183;SDS011;35021;49.214;12.270;2023-09-07T07:32:28;3.55;;;3.03;;
49183;SDS011;35021;49.214;12.270;2023-09-07T07:34:55;4.72;;;2.20;;
49183;SDS011;35021;49.214;12.270;2023-09-07T07:37:23;3.60;;;2.65;;
49183;SDS011;35021;49.214;12.270;2023-09-07T07:39:50;3.70;;;2.58;;
49183;SDS011;35021;49.214;12.270;2023-09-07T07:42:17;3.25;;;2.25;;
49183;SDS011;35021;49.214;12.270;2023-09-07T07:44:45;3.42;;;2.60;;
49183;SDS011;35021;49.214;12.270;2023-09-07T07:47:12;4.05;;;2.60;;
49183;SDS011;35021;49.214;12.270;2023-09-07T07:49:39;2.78;;;2.58;;
49183;SDS011;35021;49.214;12.270;2023-09-07T07:52:06;3.67;;;2.50;;
49183;SDS011;35021;49.214;12.270;2023-09-07T07:54:33;3.03;;;2.70;;
49183;SDS011;35021;49.214;12.270;2023-09-07T07:57:00;2.67;;;2.40;;
49183;SDS011;35021;49.214;12.270;2023-09-07T07:59:27;3.13;;;2.38;;
49183;SDS011;35021;49.214;12.270;2023-09-07T08:01:54;2.90;;;2.28;;
49183;SDS011;35021;49.214;12.270;2023-09-07T08:04:21;3.40;;;2.50;;
49183;SDS011;35021;49.214;12.270;2023-09-07T08:06:48;2.80;;;2.60;;
49183;SDS011;35021;49.214;12.270;2023-09-07T08:09:15;4.25;;;2.45;;
49183;SDS011;35021;49.214;12.270;2023-09-07T08:11:42;3.72;;;2.45;;
49183;SDS011;35021;49.214;12.270;2023-09-07T08:14:09;3.40;;;2.53;;
49183;SDS011;35021;49.214;12.270;2023-09-07T08:16:37;3.25;;;2.45;;
49183;SDS011;35021;49.214;12.270;2023-09-07T08:19:04;2.90;;;2.50;;
49183;SDS011;35021;49.214;12.270;2023-09-07T08:21:31;3.50;;;2.40;;
49183;SDS011;35021;49.214;12.270;2023-09-07T08:23:58;2.67;;;2.28;;
49183;SDS011;35021;49.214;12.270;2023-09-07T08:26:25;3.13;;;2.25;;
49183;SDS011;35021;49.214;12.270;2023-09-07T08:28:52;3.25;;;2.40;;
49183;SDS011;35021;49.214;12.270;2023-09-07T08:31:19;2.72;;;2.42;;
49183;SDS011;35021;49.214;12.270;2023-09-07T08:33:48;2.70;;;2.50;;
49183;SDS011;35021;49.214;12.270;2023-09-07T08:36:17;2.72;;;2.53;;
49183;SDS011;35021;49.214;12.270;2023-09-07T08:38:49;2.83;;;2.63;;
49183;SDS011;35021;49.214;12.270;2023-09-07T08:41:20;2.65;;;2.22;;
49183;SDS011;35021;49.214;12.270;2023-09-07T08:43:47;3.53;;;2.25;;
49183;SDS011;35021;49.214;12.270;2023-09-07T08:46:18;2.70;;;2.50;;
49183;SDS011;35021;49.214;12.270;2023-09-07T08:48:47;2.35;;;2.10;;
49183;SDS011;35021;49.214;12.270;2023-09-07T08:51:16;4.13;;;2.20;;
49183;SDS011;35021;49.214;12.270;2023-09-07T08:53:45;2.25;;;2.03;;
49183;SDS011;35021;49.214;12.270;2023-09-07T08:56:13;3.47;;;2.33;;
49183;SDS011;35021;49.214;12.270;2023-09-07T08:58:41;2.10;;;1.90;;
49183;SDS011;35021;49.214;12.270;2023-09-07T09:01:08;3.78;;;2.40;;
49183;SDS011;35021;49.214;12.270;2023-09-07T09:03:36;3.60;;;2.40;;
49183;SDS011;35021;49.214;12.270;2023-09-07T09:06:03;2.40;;;2.20;;
49183;SDS011;35021;49.214;12.270;2023-09-07T09:11:21;3.45;;;2.63;;
49183;SDS011;35021;49.214;12.270;2023-09-07T09:13:50;2.45;;;2.20;;
49183;SDS011;35021;49.214;12.270;2023-09-07T09:16:18;3.67;;;2.80;;
49183;SDS011;35021;49.214;12.270;2023-09-07T09:18:53;2.70;;;2.42;;
49183;SDS011;35021;49.214;12.270;2023-09-07T09:21:24;2.50;;;2.30;;
49183;SDS011;35021;49.214;12.270;2023-09-07T09:23:53;2.72;;;2.35;;
49183;SDS011;35021;49.214;12.270;2023-09-07T09:26:24;2.60;;;2.20;;
49183;SDS011;35021;49.214;12.270;2023-09-07T09:28:55;2.63;;;2.10;;
49183;SDS011;35021;49.214;12.270;2023-09-07T09:31:23;2.50;;;2.20;;
49183;SDS011;35021;49.214;12.270;2023-09-07T09:33:51;3.03;;;2.17;;
49183;SDS011;35021;49.214;12.270;2023-09-07T09:36:18;2.45;;;2.10;;
49183;SDS011;35021;49.214;12.270;2023-09-07T09:38:47;3.10;;;2.25;;
49183;SDS011;35021;49.214;12.270;2023-09-07T09:41:16;2.20;;;2.00;;
49183;SDS011;35021;49.214;12.270;2023-09-07T09:43:45;2.90;;;2.13;;
49183;SDS011;35021;49.214;12.270;2023-09-07T09:46:15;3.78;;;2.47;;
49183;SDS011;35021;49.214;12.270;2023-09-07T09:48:43;2.53;;;2.33;;
49183;SDS011;35021;49.214;12.270;2023-09-07T09:51:10;3.03;;;2.20;;
49183;SDS011;35021;49.214;12.270;2023-09-07T09:53:38;2.75;;;2.10;;
49183;SDS011;35021;49.214;12.270;2023-09-07T09:56:05;2.60;;;2.13;;
49183;SDS011;35021;49.214;12.270;2023-09-07T09:58:32;2.42;;;2.00;;
49183;SDS011;35021;49.214;12.270;2023-09-07T10:01:02;2.65;;;2.30;;
49183;SDS011;35021;49.214;12.270;2023-09-07T10:03:32;2.70;;;2.10;;
49183;SDS011;35021;49.214;12.270;2023-09-07T10:06:08;2.60;;;1.80;;
49183;SDS011;35021;49.214;12.270;2023-09-07T10:08:35;2.75;;;2.17;;
49183;SDS011;35021;49.214;12.270;2023-09-07T10:11:09;2.53;;;2.30;;
49183;SDS011;35021;49.214;12.270;2023-09-07T10:13:36;2.50;;;1.90;;
49183;SDS011;35021;49.214;12.270;2023-09-07T10:16:03;2.30;;;2.10;;
49183;SDS011;35021;49.214;12.270;2023-09-07T10:18:38;2.40;;;2.20;;
49183;SDS011;35021;49.214;12.270;2023-09-07T10:21:06;2.53;;;2.28;;
49183;SDS011;35021;49.214;12.270;2023-09-07T10:23:40;4.30;;;2.30;;
49183;SDS011;35021;49.214;12.270;2023-09-07T10:26:12;2.50;;;2.15;;
49183;SDS011;35021;49.214;12.270;2023-09-07T10:28:40;2.70;;;2.17;;
49183;SDS011;35021;49.214;12.270;2023-09-07T10:31:12;2.40;;;2.20;;
49183;SDS011;35021;49.214;12.270;2023-09-07T10:33:41;2.58;;;2.22;;
49183;SDS011;35021;49.214;12.270;2023-09-07T10:36:08;2.67;;;2.47;;
49183;SDS011;35021;49.214;12.270;2023-09-07T10:38:50;2.85;;;2.22;;
49183;SDS011;35021;49.214;12.270;2023-09-07T10:41:20;3.05;;;2.20;;
49183;SDS011;35021;49.214;12.270;2023-09-07T10:43:52;2.58;;;2.25;;
49183;SDS011;35021;49.214;12.270;2023-09-07T10:46:21;3.38;;;2.50;;
49183;SDS011;35021;49.214;12.270;2023-09-07T10:48:49;2.65;;;2.38;;
49183;SDS011;35021;49.214;12.270;2023-09-07T10:51:20;3.22;;;2.05;;
49183;SDS011;35021;49.214;12.270;2023-09-07T10:53:48;2.88;;;2.53;;
49183;SDS011;35021;49.214;12.270;2023-09-07T10:56:16;2.72;;;2.10;;
49183;SDS011;35021;49.214;12.270;2023-09-07T10:58:42;2.50;;;2.30;;
49183;SDS011;35021;49.214;12.270;2023-09-07T11:01:10;2.63;;;2.42;;
49183;SDS011;35021;49.214;12.270;2023-09-07T11:03:39;3.13;;;2.53;;
49183;SDS011;35021;49.214;12.270;2023-09-07T11:06:08;3.08;;;2.47;;
49183;SDS011;35021;49.214;12.270;2023-09-07T11:08:37;2.40;;;2.20;;
49183;SDS011;35021;49.214;12.270;2023-09-07T11:11:05;2.60;;;2.30;;
49183;SDS011;35021;49.214;12.270;2023-09-07T11:13:32;2.50;;;2.30;;
49183;SDS011;35021;49.214;12.270;2023-09-07T11:16:00;3.22;;;2.70;;
49183;SDS011;35021;49.214;12.270;2023-09-07T11:18:27;3.97;;;2.70;;
49183;SDS011;35021;49.214;12.270;2023-09-07T11:20:55;3.33;;;2.10;;
49183;SDS011;35021;49.214;12.270;2023-09-07T11:23:22;3.03;;;2.70;;
49183;SDS011;35021;49.214;12.270;2023-09-07T11:25:50;3.38;;;2.60;;
49183;SDS011;35021;49.214;12.270;2023-09-07T11:28:19;3.22;;;2.42;;
49183;SDS011;35021;49.214;12.270;2023-09-07T11:30:49;2.85;;;2.40;;
49183;SDS011;35021;49.214;12.270;2023-09-07T11:33:17;3.90;;;2.83;;
49183;SDS011;35021;49.214;12.270;2023-09-07T11:35:45;3.85;;;2.60;;
49183;SDS011;35021;49.214;12.270;2023-09-07T11:38:13;2.45;;;2.13;;
49183;SDS011;35021;49.214;12.270;2023-09-07T11:40:41;2.97;;;2.67;;
49183;SDS011;35021;49.214;12.270;2023-09-07T11:43:15;3.78;;;2.75;;
49183;SDS011;35021;49.214;12.270;2023-09-07T11:45:45;3.03;;;2.53;;
49183;SDS011;35021;49.214;12.270;2023-09-07T11:48:13;3.00;;;2.45;;
49183;SDS011;35021;49.214;12.270;2023-09-07T11:50:40;2.65;;;2.42;;
49183;SDS011;35021;49.214;12.270;2023-09-07T11:53:07;2.63;;;2.42;;
49183;SDS011;35021;49.214;12.270;2023-09-07T11:55:34;3.25;;;2.50;;
49183;SDS011;35021;49.214;12.270;2023-09-07T11:58:06;3.47;;;2.83;;
49183;SDS011;35021;49.214;12.270;2023-09-07T12:00:32;3.30;;;2.67;;
49183;SDS011;35021;49.214;12.270;2023-09-07T12:02:59;3.33;;;2.58;;
49183;SDS011;35021;49.214;12.270;2023-09-07T12:05:26;2.50;;;2.30;;
49183;SDS011;35021;49.214;12.270;2023-09-07T12:07:53;3.28;;;2.80;;
49183;SDS011;35021;49.214;12.270;2023-09-07T12:10:20;3.25;;;2.67;;
49183;SDS011;35021;49.214;12.270;2023-09-07T12:12:48;3.70;;;2.88;;
49183;SDS011;35021;49.214;12.270;2023-09-07T12:15:14;2.90;;;2.55;;
49183;SDS011;35021;49.214;12.270;2023-09-07T12:17:41;2.53;;;2.33;;
49183;SDS011;35021;49.214;12.270;2023-09-07T12:20:09;2.72;;;2.38;;
49183;SDS011;35021;49.214;12.270;2023-09-07T12:22:37;2.95;;;2.45;;
49183;SDS011;35021;49.214;12.270;2023-09-07T12:25:07;3.65;;;2.50;;
49183;SDS011;35021;49.214;12.270;2023-09-07T12:27:44;2.80;;;2.40;;
49183;SDS011;35021;49.214;12.270;2023-09-07T12:30:17;2.65;;;2.45;;
49183;SDS011;35021;49.214;12.270;2023-09-07T12:32:46;2.72;;;2.53;;
49183;SDS011;35021;49.214;12.270;2023-09-07T12:35:13;3.08;;;2.47;;
49183;SDS011;35021;49.214;12.270;2023-09-07T12:37:42;3.33;;;2.75;;
49183;SDS011;35021;49.214;12.270;2023-09-07T12:40:09;2.80;;;2.55;;
49183;SDS011;35021;49.214;12.270;2023-09-07T12:42:40;2.97;;;2.50;;
49183;SDS011;35021;49.214;12.270;2023-09-07T12:45:08;2.85;;;2.60;;
49183;SDS011;35021;49.214;12.270;2023-09-07T12:47:37;2.80;;;2.30;;
49183;SDS011;35021;49.214;12.270;2023-09-07T12:50:05;2.80;;;2.35;;
49183;SDS011;35021;49.214;12.270;2023-09-07T12:52:33;2.50;;;2.30;;
49183;SDS011;35021;49.214;12.270;2023-09-07T12:55:05;4.07;;;2.90;;
49183;SDS011;35021;49.214;12.270;2023-09-07T12:57:33;2.65;;;2.45;;
49183;SDS011;35021;49.214;12.270;2023-09-07T13:00:00;3.42;;;2.58;;
49183;SDS011;35021;49.214;12.270;2023-09-07T13:02:29;3.42;;;2.65;;
49183;SDS011;35021;49.214;12.270;2023-09-07T13:04:56;3.63;;;2.60;;
49183;SDS011;35021;49.214;12.270;2023-09-07T13:07:23;2.65;;;2.45;;
49183;SDS011;35021;49.214;12.270;2023-09-07T13:09:50;2.90;;;2.60;;
49183;SDS011;35021;49.214;12.270;2023-09-07T13:12:17;2.30;;;2.00;;
49183;SDS011;35021;49.214;12.270;2023-09-07T13:14:45;3.03;;;2.35;;
49183;SDS011;35021;49.214;12.270;2023-09-07T13:17:12;3.03;;;2.50;;
49183;SDS011;35021;49.214;12.270;2023-09-07T13:19:43;2.70;;;2.30;;
49183;SDS011;35021;49.214;12.270;2023-09-07T13:22:10;3.03;;;2.72;;
49183;SDS011;35021;49.214;12.270;2023-09-07T13:24:37;3.00;;;2.65;;
49183;SDS011;35021;49.214;12.270;2023-09-07T13:27:08;3.35;;;2.80;;
49183;SDS011;35021;49.214;12.270;2023-09-07T13:29:36;2.97;;;2.45;;
49183;SDS011;35021;49.214;12.270;2023-09-07T13:32:05;3.00;;;2.38;;
49183;SDS011;35021;49.214;12.270;2023-09-07T13:34:37;3.22;;;2.60;;
49183;SDS011;35021;49.214;12.270;2023-09-07T13:37:04;4.40;;;2.75;;
49183;SDS011;35021;49.214;12.270;2023-09-07T13:39:31;3.03;;;2.67;;
49183;SDS011;35021;49.214;12.270;2023-09-07T13:41:58;2.60;;;2.20;;
49183;SDS011;35021;49.214;12.270;2023-09-07T13:44:25;2.80;;;2.38;;
49183;SDS011;35021;49.214;12.270;2023-09-07T13:46:52;2.67;;;2.47;;
49183;SDS011;35021;49.214;12.270;2023-09-07T13:49:21;3.03;;;2.40;;
49183;SDS011;35021;49.214;12.270;2023-09-07T13:51:48;2.78;;;2.45;;
49183;SDS011;35021;49.214;12.270;2023-09-07T13:54:17;4.47;;;2.88;;
49183;SDS011;35021;49.214;12.270;2023-09-07T13:56:43;3.75;;;2.65;;
49183;SDS011;35021;49.214;12.270;2023-09-07T13:59:12;2.85;;;2.10;;
49183;SDS011;35021;49.214;12.270;2023-09-07T14:01:40;3.35;;;2.47;;
49183;SDS011;35021;49.214;12.270;2023-09-07T14:04:06;2.55;;;2.35;;
49183;SDS011;35021;49.214;12.270;2023-09-07T14:06:33;2.63;;;2.40;;
49183;SDS011;35021;49.214;12.270;2023-09-07T14:09:00;2.83;;;2.58;;
49183;SDS011;35021;49.214;12.270;2023-09-07T14:11:27;2.83;;;2.40;;
49183;SDS011;35021;49.214;12.270;2023-09-07T14:13:54;2.90;;;2.60;;
49183;SDS011;35021;49.214;12.270;2023-09-07T14:16:21;2.92;;;2.53;;
49183;SDS011;35021;49.214;12.270;2023-09-07T14:18:49;3.70;;;2.80;;
49183;SDS011;35021;49.214;12.270;2023-09-07T14:21:16;2.75;;;2.35;;
49183;SDS011;35021;49.214;12.270;2023-09-07T14:23:44;3.90;;;2.55;;
49183;SDS011;35021;49.214;12.270;2023-09-07T14:26:12;5.22;;;2.30;;
49183;SDS011;35021;49.214;12.270;2023-09-07T14:28:39;2.83;;;2.50;;
49183;SDS011;35021;49.214;12.270;2023-09-07T14:31:06;3.30;;;2.53;;
49183;SDS011;35021;49.214;12.270;2023-09-07T14:33:34;2.90;;;2.60;;
49183;SDS011;35021;49.214;12.270;2023-09-07T14:36:06;3.65;;;3.00;;
49183;SDS011;35021;49.214;12.270;2023-09-07T14:38:33;3.42;;;2.70;;
49183;SDS011;35021;49.214;12.270;2023-09-07T14:41:06;4.53;;;2.42;;